createdAt,value
2023-07-04T00:01:54.687Z,6.40
2023-07-04T00:04:22.307Z,9.15
2023-07-04T00:06:48.769Z,10.07
2023-07-04T00:09:15.981Z,6.78
2023-07-04T00:11:42.425Z,8.27
2023-07-04T00:14:08.928Z,13.02
2023-07-04T00:16:35.551Z,8.07
2023-07-04T00:19:05.026Z,8.35
2023-07-04T00:21:32.263Z,7.85
2023-07-04T00:23:58.748Z,4.85
2023-07-04T00:26:26.378Z,4.60
2023-07-04T00:28:53.513Z,5.55
2023-07-04T00:31:23.964Z,5.32
2023-07-04T00:33:51.137Z,4.95
2023-07-04T00:36:18.931Z,8.60
2023-07-04T00:38:49.922Z,5.72
2023-07-04T00:41:22.196Z,6.28
2023-07-04T00:44:08.532Z,7.07
2023-07-04T00:46:41.054Z,4.43
2023-07-04T00:49:19.898Z,6.03
2023-07-04T00:52:00.834Z,5.10
2023-07-04T00:54:30.920Z,10.13
2023-07-04T00:57:03.837Z,6.10
2023-07-04T00:59:32.503Z,6.93
2023-07-04T01:01:59.047Z,7.53
2023-07-04T01:04:25.628Z,4.72
2023-07-04T01:07:10.811Z,6.53
2023-07-04T01:09:39.469Z,4.18
2023-07-04T01:12:06.816Z,8.02
2023-07-04T01:14:33.272Z,7.38
2023-07-04T01:16:59.786Z,9.30
2023-07-04T01:19:29.267Z,4.68
2023-07-04T01:22:40.781Z,5.50
2023-07-04T01:25:15.309Z,5.22
2023-07-04T01:27:43.195Z,4.43
2023-07-04T01:30:14.015Z,7.60
2023-07-04T01:32:42.024Z,5.30
2023-07-04T01:35:12.141Z,6.13
2023-07-04T01:37:38.757Z,9.23
2023-07-04T01:40:08.609Z,8.40
2023-07-04T01:42:37.201Z,10.88
2023-07-04T01:45:06.160Z,6.85
2023-07-04T01:47:35.001Z,9.90
2023-07-04T01:50:02.227Z,10.32
2023-07-04T01:52:31.304Z,10.38
2023-07-04T01:54:57.911Z,13.02
2023-07-04T01:57:25.141Z,10.88
2023-07-04T01:59:51.792Z,9.77
2023-07-04T02:02:18.755Z,13.77
2023-07-04T02:04:45.207Z,7.60
2023-07-04T02:07:12.547Z,8.23
2023-07-04T02:09:39.101Z,7.35
2023-07-04T02:12:05.994Z,11.00
2023-07-04T02:14:32.435Z,5.50
2023-07-04T02:16:58.925Z,8.55
2023-07-04T02:19:25.379Z,6.43
2023-07-04T02:21:51.838Z,7.88
2023-07-04T02:24:18.338Z,8.10
2023-07-04T02:26:44.793Z,8.10
2023-07-04T02:29:11.216Z,7.35
2023-07-04T02:31:37.769Z,4.88
2023-07-04T02:34:04.256Z,10.20
2023-07-04T02:36:30.697Z,6.13
2023-07-04T02:38:57.118Z,14.82
2023-07-04T02:41:23.583Z,6.15
2023-07-04T02:43:50.956Z,9.52
2023-07-04T02:46:17.501Z,10.40
2023-07-04T02:48:43.984Z,9.93
2023-07-04T02:51:10.403Z,13.60
2023-07-04T02:53:36.812Z,12.02
2023-07-04T02:56:03.379Z,10.27
2023-07-04T02:58:29.837Z,9.25
2023-07-04T03:00:56.509Z,10.27
2023-07-04T03:03:23.510Z,11.98
2023-07-04T03:05:50.429Z,13.52
2023-07-04T03:08:17.252Z,11.32
2023-07-04T03:10:48.692Z,17.55
2023-07-04T03:13:15.349Z,11.00
2023-07-04T03:15:42.530Z,17.20
2023-07-04T03:18:09.291Z,10.52
2023-07-04T03:20:35.826Z,9.52
2023-07-04T03:23:02.375Z,15.13
2023-07-04T03:25:28.804Z,10.50
2023-07-04T03:27:55.228Z,13.52
2023-07-04T03:30:22.642Z,14.32
2023-07-04T03:32:49.154Z,17.13
2023-07-04T03:35:15.645Z,11.88
2023-07-04T03:37:42.190Z,12.85
2023-07-04T03:40:10.927Z,13.68
2023-07-04T03:42:38.966Z,13.43
2023-07-04T03:45:06.867Z,19.38
2023-07-04T03:47:33.577Z,12.00
2023-07-04T03:50:00.215Z,13.52
2023-07-04T03:52:26.808Z,15.98
2023-07-04T03:54:54.030Z,10.45
2023-07-04T03:57:20.609Z,16.02
2023-07-04T03:59:47.019Z,16.27
2023-07-04T04:02:13.450Z,11.85
2023-07-04T04:04:42.784Z,12.40
2023-07-04T04:07:10.817Z,16.38
2023-07-04T04:09:38.326Z,15.25
2023-07-04T04:12:06.238Z,17.10
2023-07-04T04:14:33.574Z,11.68
2023-07-04T04:17:00.245Z,11.95
2023-07-04T04:19:27.451Z,15.20
2023-07-04T04:21:54.264Z,11.95
2023-07-04T04:24:21.845Z,16.27
2023-07-04T04:26:48.871Z,13.77
2023-07-04T04:29:18.203Z,14.23
2023-07-04T04:31:48.388Z,17.67
2023-07-04T04:34:18.137Z,12.30
2023-07-04T04:36:44.947Z,15.88
2023-07-04T04:39:11.388Z,14.40
2023-07-04T04:41:37.809Z,14.55
2023-07-04T04:44:05.966Z,16.10
2023-07-04T04:46:33.359Z,14.40
2023-07-04T04:49:03.734Z,13.18
2023-07-04T04:51:31.810Z,14.90
2023-07-04T04:53:58.786Z,8.00
2023-07-04T04:56:25.388Z,16.75
2023-07-04T04:58:53.346Z,13.32
2023-07-04T05:01:23.795Z,15.70
2023-07-04T05:03:53.518Z,15.32
2023-07-04T05:06:25.069Z,13.05
2023-07-04T05:08:51.977Z,17.15
2023-07-04T05:11:18.591Z,16.77
2023-07-04T05:13:48.934Z,15.73
2023-07-04T05:16:18.128Z,13.88
2023-07-04T05:18:47.070Z,24.10
2023-07-04T05:21:16.242Z,13.07
2023-07-04T05:23:44.253Z,12.15
2023-07-04T05:26:30.991Z,13.27
2023-07-04T05:28:59.600Z,15.05
2023-07-04T05:31:28.532Z,13.65
2023-07-04T05:33:56.016Z,17.20
2023-07-04T05:36:27.769Z,14.38
2023-07-04T05:38:56.001Z,14.20
2023-07-04T05:41:24.358Z,16.55
2023-07-04T05:43:51.008Z,15.63
2023-07-04T05:46:18.788Z,14.63
2023-07-04T05:48:45.772Z,10.32
2023-07-04T05:51:14.106Z,12.52
2023-07-04T05:53:42.313Z,17.27
2023-07-04T05:56:23.429Z,14.23
2023-07-04T05:58:51.740Z,12.57
2023-07-04T06:01:43.226Z,14.90
2023-07-04T06:04:11.586Z,17.08
2023-07-04T06:06:42.742Z,13.00
2023-07-04T06:09:12.100Z,15.82
2023-07-04T06:11:40.334Z,19.67
2023-07-04T06:14:07.609Z,13.98
2023-07-04T06:16:37.655Z,14.50
2023-07-04T06:19:04.149Z,19.52
2023-07-04T06:21:43.298Z,14.05
2023-07-04T06:24:11.325Z,20.58
2023-07-04T06:26:37.941Z,21.52
2023-07-04T06:29:04.507Z,17.38
2023-07-04T06:31:31.152Z,21.65
2023-07-04T06:33:57.776Z,11.43
2023-07-04T06:36:24.834Z,14.52
2023-07-04T06:38:51.468Z,20.50
2023-07-04T06:41:18.381Z,18.70
2023-07-04T06:43:46.329Z,16.42
2023-07-04T06:46:14.912Z,14.45
2023-07-04T06:48:41.366Z,15.43
2023-07-04T06:51:07.718Z,15.90
2023-07-04T06:53:35.616Z,13.10
2023-07-04T06:56:13.794Z,16.40
2023-07-04T06:58:52.797Z,21.85
2023-07-04T07:01:20.544Z,20.60
2023-07-04T07:03:47.517Z,20.90
2023-07-04T07:06:14.531Z,16.85
2023-07-04T07:08:41.721Z,17.77
2023-07-04T07:11:11.672Z,19.13
2023-07-04T07:13:39.341Z,17.50
2023-07-04T07:16:11.686Z,20.00
2023-07-04T07:18:40.603Z,10.30
2023-07-04T07:21:09.713Z,14.65
2023-07-04T07:23:37.570Z,9.90
2023-07-04T07:26:06.294Z,14.18
2023-07-04T07:28:36.023Z,12.95
2023-07-04T07:31:33.800Z,15.70
2023-07-04T07:34:01.656Z,12.48
2023-07-04T07:36:38.802Z,15.88
2023-07-04T07:39:07.170Z,17.85
2023-07-04T07:41:37.669Z,11.13
2023-07-04T07:44:06.751Z,13.63
2023-07-04T07:46:33.456Z,13.02
2023-07-04T07:48:59.922Z,11.05
2023-07-04T07:51:27.489Z,11.88
2023-07-04T07:53:54.683Z,11.45
2023-07-04T07:56:23.230Z,11.95
2023-07-04T07:58:49.775Z,10.55
2023-07-04T08:01:20.015Z,10.20
2023-07-04T08:03:46.992Z,11.27
2023-07-04T08:06:27.760Z,18.38
2023-07-04T08:08:56.031Z,11.05
2023-07-04T08:11:23.526Z,10.75
2023-07-04T08:13:50.696Z,15.75
2023-07-04T08:16:19.896Z,12.25
2023-07-04T08:18:46.704Z,10.43
2023-07-04T08:21:13.397Z,10.55
2023-07-04T08:23:39.817Z,10.95
2023-07-04T08:26:06.317Z,8.93
2023-07-04T08:28:32.752Z,13.43
2023-07-04T08:31:06.625Z,8.82
2023-07-04T08:33:34.004Z,10.50
2023-07-04T08:36:08.046Z,11.38
2023-07-04T08:38:34.608Z,9.07
2023-07-04T08:41:01.615Z,10.27
2023-07-04T08:43:35.246Z,14.82
2023-07-04T08:46:07.053Z,10.77
2023-07-04T08:48:33.887Z,8.57
2023-07-04T08:51:03.925Z,10.95
2023-07-04T08:53:31.337Z,13.07
2023-07-04T08:56:17.585Z,15.35
2023-07-04T08:59:02.757Z,9.02
2023-07-04T09:01:55.765Z,6.78
2023-07-04T09:04:31.688Z,10.80
2023-07-04T09:07:20.797Z,10.55
2023-07-04T09:10:15.291Z,12.05
2023-07-04T09:12:41.946Z,9.20
2023-07-04T09:15:23.778Z,9.07
2023-07-04T09:20:52.955Z,7.03
2023-07-04T09:23:23.398Z,8.35
2023-07-04T09:25:52.126Z,8.88
2023-07-04T09:28:18.601Z,9.35
2023-07-04T09:30:46.920Z,12.07
2023-07-04T09:33:16.476Z,9.93
2023-07-04T09:35:43.673Z,7.43
2023-07-04T09:38:10.173Z,7.68
2023-07-04T09:40:41.231Z,7.47
2023-07-04T09:43:10.150Z,7.90
2023-07-04T09:45:36.790Z,9.15
2023-07-04T09:48:04.862Z,8.18
2023-07-04T09:50:33.255Z,10.10
2023-07-04T09:53:10.502Z,7.15
2023-07-04T09:55:39.027Z,6.10
2023-07-04T09:58:24.938Z,8.52
2023-07-04T10:01:09.559Z,11.43
2023-07-04T10:03:42.566Z,5.63
2023-07-04T10:06:10.257Z,4.60
2023-07-04T10:08:56.957Z,6.25
2023-07-04T10:11:27.928Z,6.35
2023-07-04T10:14:08.652Z,6.10
2023-07-04T10:16:36.078Z,6.55
2023-07-04T10:19:04.784Z,8.05
2023-07-04T10:21:31.221Z,6.07
2023-07-04T10:23:59.711Z,8.93
2023-07-04T10:26:26.256Z,7.38
2023-07-04T10:28:53.387Z,7.40
2023-07-04T10:31:22.742Z,9.18
2023-07-04T10:33:58.048Z,8.63
2023-07-04T10:36:29.888Z,8.05
2023-07-04T10:38:59.980Z,10.00
2023-07-04T10:41:33.575Z,5.45
2023-07-04T10:44:04.141Z,5.97
2023-07-04T10:46:34.212Z,8.68
2023-07-04T10:49:07.684Z,8.00
2023-07-04T10:51:40.318Z,7.72
2023-07-04T10:54:09.092Z,6.50
2023-07-04T10:56:36.233Z,8.63
2023-07-04T10:59:10.195Z,7.15
2023-07-04T11:01:47.180Z,6.80
2023-07-04T11:04:27.523Z,8.82
2023-07-04T11:07:00.042Z,5.35
2023-07-04T11:09:27.671Z,6.10
2023-07-04T11:12:02.578Z,9.63
2023-07-04T11:14:31.177Z,6.90
2023-07-04T11:17:03.004Z,6.10
2023-07-04T11:19:31.278Z,6.95
2023-07-04T11:22:08.884Z,9.20
2023-07-04T11:24:51.009Z,11.27
2023-07-04T11:27:26.152Z,5.32
2023-07-04T11:29:57.983Z,10.55
2023-07-04T11:32:27.515Z,7.30
2023-07-04T11:35:15.688Z,4.72
2023-07-04T11:37:44.346Z,8.55
2023-07-04T11:40:25.240Z,9.23
2023-07-04T11:43:01.171Z,7.70
2023-07-04T11:45:30.695Z,3.60
2023-07-04T11:48:02.245Z,6.40
2023-07-04T11:50:35.600Z,5.13
2023-07-04T11:53:30.409Z,7.10
2023-07-04T11:56:18.021Z,7.50
2023-07-04T11:58:46.143Z,8.73
2023-07-04T12:01:15.770Z,6.13
2023-07-04T12:03:54.382Z,4.80
2023-07-04T12:06:37.102Z,5.22
2023-07-04T12:09:03.928Z,5.95
2023-07-04T12:11:43.683Z,7.82
2023-07-04T12:14:12.571Z,6.90
2023-07-04T12:16:39.173Z,4.47
2023-07-04T12:19:06.026Z,6.38
2023-07-04T12:21:33.904Z,7.55
2023-07-04T12:24:04.498Z,4.05
2023-07-04T12:26:33.499Z,5.85
2023-07-04T12:29:16.153Z,3.88
2023-07-04T12:31:43.310Z,3.40
2023-07-04T12:34:11.463Z,6.00
2023-07-04T12:36:44.975Z,3.72
2023-07-04T12:39:15.213Z,5.35
2023-07-04T12:41:43.969Z,2.92
2023-07-04T12:51:44.824Z,5.85
2023-07-04T12:54:12.226Z,5.57
2023-07-04T12:56:42.312Z,6.30
2023-07-04T12:59:31.928Z,9.30
2023-07-04T13:01:58.577Z,5.68
2023-07-04T13:04:25.162Z,8.88
2023-07-04T13:06:52.345Z,5.00
2023-07-04T13:09:20.507Z,8.48
2023-07-04T13:11:47.245Z,7.32
2023-07-04T13:14:13.706Z,7.50
2023-07-04T13:16:40.651Z,5.60
2023-07-04T13:19:07.137Z,8.20
2023-07-04T13:21:37.316Z,6.65
2023-07-04T13:26:42.008Z,6.93
2023-07-04T13:34:22.675Z,7.45
2023-07-04T13:37:00.902Z,9.38
2023-07-04T13:41:59.216Z,6.93
2023-07-04T13:46:55.238Z,7.97
2023-07-04T13:49:22.269Z,7.35
2023-07-04T13:51:48.720Z,9.20
2023-07-04T13:54:15.169Z,5.45
2023-07-04T13:56:41.738Z,10.43
2023-07-04T13:59:08.175Z,10.30
2023-07-04T14:06:33.638Z,5.68
2023-07-04T14:09:00.148Z,6.25
2023-07-04T14:11:26.582Z,8.73
2023-07-04T14:13:56.594Z,7.50
2023-07-04T14:21:25.095Z,8.15
2023-07-04T14:23:51.710Z,8.02
2023-07-04T14:26:22.136Z,9.80
2023-07-04T14:28:50.799Z,6.67
2023-07-04T14:31:17.415Z,6.22
2023-07-04T14:33:43.911Z,9.18
2023-07-04T14:36:10.440Z,6.82
2023-07-04T14:38:37.260Z,6.97
2023-07-04T14:43:37.453Z,7.97
2023-07-04T14:46:07.167Z,6.40
2023-07-04T14:48:34.417Z,6.03
2023-07-04T14:51:02.642Z,10.73
2023-07-04T14:53:29.111Z,9.02
2023-07-04T14:55:59.639Z,7.97
2023-07-04T14:58:26.317Z,9.20
2023-07-04T15:00:55.256Z,8.20
2023-07-04T15:03:22.047Z,9.15
2023-07-04T15:05:48.520Z,9.48
2023-07-04T15:08:15.532Z,11.65
2023-07-04T15:10:45.563Z,8.32
2023-07-04T15:13:12.116Z,8.30
2023-07-04T15:15:38.615Z,7.38
2023-07-04T15:18:05.112Z,8.77
2023-07-04T15:20:31.670Z,7.40
2023-07-04T15:22:58.165Z,9.32
2023-07-04T15:25:24.585Z,13.27
2023-07-04T15:27:51.016Z,9.15
2023-07-04T15:30:17.452Z,9.52
2023-07-04T15:32:44.996Z,8.30
2023-07-04T15:37:38.399Z,9.05
2023-07-04T15:40:05.907Z,10.15
2023-07-04T15:42:33.503Z,9.65
2023-07-04T15:45:00.586Z,8.85
2023-07-04T15:47:27.620Z,9.68
2023-07-04T15:49:54.182Z,11.77
2023-07-04T15:52:21.241Z,8.35
2023-07-04T15:54:47.688Z,10.52
2023-07-04T15:57:14.100Z,10.93
2023-07-04T15:59:40.626Z,9.23
2023-07-04T16:02:07.069Z,10.02
2023-07-04T16:04:33.722Z,9.27
2023-07-04T16:07:02.077Z,10.68
2023-07-04T16:09:28.592Z,9.07
2023-07-04T16:11:55.004Z,10.98
2023-07-04T16:14:21.456Z,12.15
2023-07-04T16:16:48.016Z,13.63
2023-07-04T16:19:14.495Z,9.40
2023-07-04T16:21:40.901Z,12.30
2023-07-04T16:24:07.441Z,9.00
2023-07-04T16:26:34.484Z,10.02
2023-07-04T16:29:01.006Z,11.05
2023-07-04T16:31:27.507Z,11.00
2023-07-04T16:33:53.945Z,12.73
2023-07-04T16:36:20.449Z,11.10
2023-07-04T16:38:46.872Z,12.82
2023-07-04T16:41:13.992Z,17.17
2023-07-04T16:43:41.069Z,13.10
2023-07-04T16:46:08.206Z,9.88
2023-07-04T16:48:35.423Z,10.23
2023-07-04T16:51:02.053Z,17.60
2023-07-04T16:53:28.891Z,12.60
2023-07-04T16:56:00.859Z,12.13
2023-07-04T17:00:54.621Z,8.65
2023-07-04T17:03:21.306Z,8.70
2023-07-04T17:05:49.309Z,12.32
2023-07-04T17:08:15.812Z,11.40
2023-07-04T17:10:50.014Z,11.55
2023-07-04T17:13:31.918Z,15.23
2023-07-04T17:16:03.128Z,9.65
2023-07-04T17:18:29.610Z,11.52
2023-07-04T17:20:56.507Z,8.43
2023-07-04T17:23:22.908Z,12.75
2023-07-04T17:25:50.815Z,14.38
2023-07-04T17:28:18.044Z,12.43
2023-07-04T17:30:44.869Z,10.48
2023-07-04T17:33:11.322Z,8.13
2023-07-04T17:35:47.701Z,10.55
2023-07-04T17:38:17.553Z,8.75
2023-07-04T17:40:43.976Z,9.32
2023-07-04T17:43:11.933Z,8.95
2023-07-04T17:45:38.783Z,8.23
2023-07-04T17:48:05.382Z,12.43
2023-07-04T17:50:32.144Z,11.82
2023-07-04T17:52:58.557Z,14.07
2023-07-04T17:55:26.482Z,12.07
2023-07-04T17:57:55.612Z,8.23
2023-07-04T18:00:22.251Z,15.05
2023-07-04T18:02:49.532Z,9.93
2023-07-04T18:05:16.069Z,11.02
2023-07-04T18:07:42.503Z,11.10
2023-07-04T18:10:09.890Z,10.30
2023-07-04T18:12:36.339Z,9.15
2023-07-04T18:15:02.789Z,8.27
2023-07-04T18:17:31.125Z,8.77
2023-07-04T18:19:59.590Z,11.27
2023-07-04T18:22:26.662Z,14.02
2023-07-04T18:24:54.684Z,7.57
2023-07-04T18:27:21.522Z,10.88
2023-07-04T18:29:47.947Z,10.02
2023-07-04T18:32:14.472Z,9.07
2023-07-04T18:34:40.906Z,8.85
2023-07-04T18:37:07.345Z,8.93
2023-07-04T18:39:33.792Z,12.55
2023-07-04T18:42:00.306Z,9.70
2023-07-04T18:44:26.862Z,9.30
2023-07-04T18:46:54.461Z,9.55
2023-07-04T18:49:25.564Z,13.35
2023-07-04T18:51:53.578Z,10.10
2023-07-04T18:54:20.135Z,12.15
2023-07-04T18:56:47.284Z,9.35
2023-07-04T18:59:14.885Z,9.95
2023-07-04T19:01:45.019Z,9.70
2023-07-04T19:04:12.070Z,9.27
2023-07-04T19:06:38.862Z,8.80
2023-07-04T19:09:05.790Z,11.35
2023-07-04T19:11:38.492Z,11.43
2023-07-04T19:14:09.495Z,11.68
2023-07-04T19:16:56.690Z,13.10
2023-07-04T19:19:25.923Z,9.43
2023-07-04T19:21:57.299Z,9.02
2023-07-04T19:24:26.038Z,9.65
2023-07-04T19:26:52.762Z,10.27
2023-07-04T19:29:19.725Z,11.70
2023-07-04T19:31:53.566Z,10.70
2023-07-04T19:34:23.079Z,9.48
2023-07-04T19:36:50.521Z,11.63
2023-07-04T19:39:16.952Z,12.30
2023-07-04T19:41:43.723Z,10.80
2023-07-04T19:44:13.304Z,13.10
2023-07-04T19:46:39.857Z,12.77
2023-07-04T19:49:06.333Z,12.80
2023-07-04T19:51:32.810Z,10.93
2023-07-04T19:54:02.016Z,13.40
2023-07-04T19:56:31.507Z,11.60
2023-07-04T19:58:58.190Z,12.15
2023-07-04T20:01:27.327Z,10.07
2023-07-04T20:03:54.237Z,14.70
2023-07-04T20:06:22.114Z,14.68
2023-07-04T20:08:50.074Z,12.18
2023-07-04T20:11:16.927Z,13.15
2023-07-04T20:13:44.970Z,10.13
2023-07-04T20:16:15.989Z,11.75
2023-07-04T20:18:42.797Z,15.50
2023-07-04T20:21:09.907Z,15.05
2023-07-04T20:23:36.697Z,15.82
2023-07-04T20:26:04.182Z,13.63
2023-07-04T20:28:31.181Z,11.35
2023-07-04T20:31:00.030Z,12.32
2023-07-04T20:33:33.647Z,13.05
2023-07-04T20:36:00.814Z,14.80
2023-07-04T20:38:27.308Z,15.63
2023-07-04T20:40:53.946Z,17.83
2023-07-04T20:43:21.107Z,13.50
2023-07-04T20:45:47.575Z,14.48
2023-07-04T20:48:14.430Z,16.65
2023-07-04T20:50:47.733Z,15.00
2023-07-04T20:53:14.965Z,15.80
2023-07-04T20:55:42.523Z,17.45
2023-07-04T20:58:09.536Z,19.70
2023-07-04T21:00:38.436Z,21.80
2023-07-04T21:03:07.122Z,17.60
2023-07-04T21:05:33.955Z,18.17
2023-07-04T21:08:00.445Z,16.70
2023-07-04T21:10:33.032Z,14.45
2023-07-04T21:13:00.226Z,12.70
2023-07-04T21:15:28.037Z,15.70
2023-07-04T21:17:55.921Z,17.38
2023-07-04T21:20:23.545Z,18.85
2023-07-04T21:22:50.022Z,17.38
2023-07-04T21:25:17.194Z,16.13
2023-07-04T21:27:43.771Z,18.65
2023-07-04T21:30:11.045Z,17.90
2023-07-04T21:32:37.987Z,19.48
2023-07-04T21:35:04.970Z,18.45
2023-07-04T21:37:31.416Z,14.60
2023-07-04T21:39:57.943Z,17.92
2023-07-04T21:42:24.460Z,17.08
2023-07-04T21:44:54.494Z,14.25
2023-07-04T21:47:21.152Z,20.70
2023-07-04T21:49:49.966Z,18.67
2023-07-04T21:52:17.249Z,14.20
2023-07-04T21:54:45.391Z,20.27
2023-07-04T21:57:12.188Z,21.20
2023-07-04T21:59:38.668Z,16.65
2023-07-04T22:02:05.563Z,19.73
2023-07-04T22:04:32.028Z,14.52
2023-07-04T22:06:59.465Z,20.15
2023-07-04T22:09:26.527Z,17.08
2023-07-04T22:11:53.028Z,15.63
2023-07-04T22:14:35.759Z,13.75
2023-07-04T22:17:05.224Z,13.80
2023-07-04T22:19:31.964Z,18.67
2023-07-04T22:21:58.627Z,16.92
2023-07-04T22:24:26.198Z,15.73
2023-07-04T22:26:52.715Z,17.23
2023-07-04T22:29:19.171Z,15.85
2023-07-04T22:31:45.755Z,19.13
2023-07-04T22:34:12.690Z,18.88
2023-07-04T22:36:39.709Z,19.85
2023-07-04T22:39:08.347Z,17.10
2023-07-04T22:41:34.834Z,18.67
2023-07-04T22:44:01.266Z,20.05
2023-07-04T22:46:30.134Z,16.23
2023-07-04T22:48:57.195Z,18.33
2023-07-04T22:51:23.791Z,18.48
2023-07-04T22:53:50.768Z,18.02
2023-07-04T22:56:17.209Z,21.25
2023-07-04T22:58:43.668Z,22.88
2023-07-04T23:01:16.488Z,21.35
2023-07-04T23:03:43.224Z,17.83
2023-07-04T23:06:10.620Z,16.23
2023-07-04T23:08:37.136Z,17.02
2023-07-04T23:11:03.722Z,21.35
2023-07-04T23:13:30.542Z,19.35
2023-07-04T23:16:06.089Z,18.05
2023-07-04T23:18:32.785Z,15.50
2023-07-04T23:20:59.289Z,19.08
2023-07-04T23:23:26.381Z,16.92
2023-07-04T23:25:53.333Z,17.00
2023-07-04T23:28:20.078Z,19.75
2023-07-04T23:30:46.561Z,22.65
2023-07-04T23:33:13.064Z,16.23
2023-07-04T23:35:39.479Z,16.80
2023-07-04T23:38:05.914Z,21.00
2023-07-04T23:40:32.552Z,14.02
2023-07-04T23:42:58.961Z,18.20
2023-07-04T23:45:25.407Z,14.63
2023-07-04T23:47:51.844Z,18.38
2023-07-04T23:50:18.392Z,19.13
2023-07-04T23:52:44.836Z,13.75
2023-07-04T23:55:11.265Z,17.90
2023-07-04T23:57:37.697Z,15.82
